createdAt,value
2022-12-14T00:01:48.889Z,-2.70
2022-12-14T00:04:17.267Z,-3.13
2022-12-14T00:06:44.694Z,-3.05
2022-12-14T00:09:12.093Z,-2.61
2022-12-14T00:11:40.107Z,-2.63
2022-12-14T00:14:07.587Z,-2.93
2022-12-14T00:16:35.293Z,-3.05
2022-12-14T00:19:04.446Z,-3.04
2022-12-14T00:21:31.788Z,-2.84
2022-12-14T00:24:00.399Z,-2.62
2022-12-14T00:26:31.210Z,-2.53
2022-12-14T00:29:00.573Z,-2.78
2022-12-14T00:31:28.488Z,-2.80
2022-12-14T00:33:55.920Z,-2.55
2022-12-14T00:36:23.303Z,-2.80
2022-12-14T00:38:51.129Z,-2.59
2022-12-14T00:41:18.503Z,-2.96
2022-12-14T00:43:49.542Z,-2.95
2022-12-14T00:46:18.113Z,-2.82
2022-12-14T00:48:46.107Z,-2.98
2022-12-14T00:51:14.988Z,-2.71
2022-12-14T00:53:44.507Z,-3.02
2022-12-14T00:56:12.092Z,-2.75
2022-12-14T00:58:39.544Z,-2.60
2022-12-14T01:01:12.714Z,-2.80
2022-12-14T01:03:40.424Z,-2.84
2022-12-14T01:06:16.510Z,-2.82
2022-12-14T01:08:43.869Z,-2.98
2022-12-14T01:11:12.398Z,-2.92
2022-12-14T01:13:40.339Z,-3.00
2022-12-14T01:16:14.537Z,-2.79
2022-12-14T01:18:43.301Z,-3.05
2022-12-14T01:21:13.512Z,-2.96
2022-12-14T01:23:41.764Z,-2.82
2022-12-14T01:26:09.823Z,-2.41
2022-12-14T01:28:37.200Z,-2.48
2022-12-14T01:31:15.938Z,-2.45
2022-12-14T01:33:44.872Z,-2.39
2022-12-14T01:36:15.294Z,-2.40
2022-12-14T01:38:43.195Z,-2.59
2022-12-14T01:41:24.183Z,-2.82
2022-12-14T01:43:57.446Z,-2.57
2022-12-14T01:46:47.130Z,-2.91
2022-12-14T01:49:32.903Z,-3.34
2022-12-14T01:52:21.659Z,-3.46
2022-12-14T01:54:53.678Z,-3.47
2022-12-14T01:57:24.944Z,-3.29
2022-12-14T01:59:53.129Z,-3.32
2022-12-14T02:02:22.359Z,-3.18
2022-12-14T02:04:54.111Z,-3.34
2022-12-14T02:07:21.881Z,-3.04
2022-12-14T02:09:49.971Z,-3.30
2022-12-14T02:12:20.878Z,-3.10
2022-12-14T02:14:48.433Z,-3.89
2022-12-14T02:17:16.690Z,-3.64
2022-12-14T02:19:44.342Z,-3.45
2022-12-14T02:22:32.985Z,-3.42
2022-12-14T02:25:31.715Z,-3.27
2022-12-14T02:28:10.924Z,-3.74
2022-12-14T02:30:42.752Z,-3.63
2022-12-14T02:33:19.142Z,-3.84
2022-12-14T02:36:01.947Z,-3.61
2022-12-14T02:38:38.672Z,-3.88
2022-12-14T02:41:24.956Z,-3.56
2022-12-14T02:44:16.839Z,-3.12
2022-12-14T02:47:05.062Z,-3.40
2022-12-14T02:50:07.029Z,-3.46
2022-12-14T02:53:12.200Z,-3.48
2022-12-14T02:55:46.390Z,-3.21
2022-12-14T02:58:20.385Z,-3.34
2022-12-14T03:00:48.236Z,-3.20
2022-12-14T03:03:16.288Z,-3.35
2022-12-14T03:05:43.711Z,-3.26
2022-12-14T03:08:13.583Z,-3.29
2022-12-14T03:10:51.732Z,-3.36
2022-12-14T03:13:24.640Z,-3.52
2022-12-14T03:16:00.968Z,-3.68
2022-12-14T03:18:33.500Z,-3.67
2022-12-14T03:21:02.234Z,-3.77
2022-12-14T03:23:33.214Z,-3.80
2022-12-14T03:26:29.004Z,-3.61
2022-12-14T03:28:57.922Z,-3.61
2022-12-14T03:31:59.089Z,-3.58
2022-12-14T03:34:37.482Z,-3.19
2022-12-14T03:37:10.379Z,-3.41
2022-12-14T03:39:40.020Z,-3.23
2022-12-14T03:42:32.970Z,-3.57
2022-12-14T03:45:15.556Z,-3.21
2022-12-14T03:48:07.888Z,-3.21
2022-12-14T03:50:41.853Z,-2.95
2022-12-14T03:53:17.101Z,-3.25
2022-12-14T03:56:05.485Z,-3.10
2022-12-14T03:59:05.362Z,-3.09
2022-12-14T04:01:52.989Z,-3.16
2022-12-14T04:04:46.671Z,-2.96
2022-12-14T04:07:20.158Z,-2.90
2022-12-14T04:10:04.373Z,-2.64
2022-12-14T04:12:53.442Z,-2.63
2022-12-14T04:15:43.753Z,-3.24
2022-12-14T04:18:33.698Z,-2.66
2022-12-14T04:21:24.546Z,-3.14
2022-12-14T04:24:19.558Z,-3.08
2022-12-14T04:26:55.140Z,-2.84
2022-12-14T04:29:47.316Z,-3.11
2022-12-14T04:32:20.563Z,-3.11
2022-12-14T04:34:51.188Z,-3.03
2022-12-14T04:37:20.534Z,-3.41
2022-12-14T04:39:54.817Z,-3.00
2022-12-14T04:42:27.008Z,-3.21
2022-12-14T04:44:59.728Z,-3.35
2022-12-14T04:47:31.642Z,-2.81
2022-12-14T04:50:08.294Z,-3.13
2022-12-14T04:52:44.218Z,-3.06
2022-12-14T04:55:26.446Z,-2.68
2022-12-14T04:58:16.141Z,-2.60
2022-12-14T05:01:45.318Z,-2.40
2022-12-14T05:04:57.368Z,-2.32
2022-12-14T05:07:42.571Z,-2.43
2022-12-14T05:10:20.078Z,-2.78
2022-12-14T05:12:55.859Z,-3.02
2022-12-14T05:15:27.209Z,-3.01
2022-12-14T05:17:55.507Z,-2.68
2022-12-14T05:20:24.645Z,-2.32
2022-12-14T05:22:52.747Z,-2.51
2022-12-14T05:25:30.030Z,-2.73
2022-12-14T05:28:00.501Z,-2.52
2022-12-14T05:30:27.968Z,-2.43
2022-12-14T05:32:55.387Z,-2.50
2022-12-14T05:35:23.024Z,-2.34
2022-12-14T05:37:50.441Z,-2.19
2022-12-14T05:40:17.999Z,-1.93
2022-12-14T05:42:48.755Z,-1.99
2022-12-14T05:45:20.119Z,-2.44
2022-12-14T05:47:47.797Z,-2.45
2022-12-14T05:50:15.296Z,-2.36
2022-12-14T05:52:43.656Z,-2.16
2022-12-14T05:55:11.294Z,-1.83
2022-12-14T05:57:38.639Z,-1.56
2022-12-14T06:00:06.397Z,-2.16
2022-12-14T06:02:34.117Z,-1.77
2022-12-14T06:05:01.500Z,-1.91
2022-12-14T06:07:28.935Z,-2.41
2022-12-14T06:09:56.688Z,-1.82
2022-12-14T06:12:24.095Z,-2.11
2022-12-14T06:14:51.492Z,-2.27
2022-12-14T06:17:19.130Z,-2.05
2022-12-14T06:19:49.871Z,-2.23
2022-12-14T06:22:18.566Z,-2.09
2022-12-14T06:24:46.227Z,-2.30
2022-12-14T06:27:13.569Z,-1.98
2022-12-14T06:29:40.953Z,-2.04
2022-12-14T06:32:08.641Z,-1.77
2022-12-14T06:34:39.820Z,-1.95
2022-12-14T06:37:09.325Z,-1.69
2022-12-14T06:39:36.745Z,-2.06
2022-12-14T06:42:04.223Z,-2.20
2022-12-14T06:44:31.905Z,-2.38
2022-12-14T06:46:59.456Z,-2.46
2022-12-14T06:49:26.903Z,-2.31
2022-12-14T06:51:54.503Z,-1.89
2022-12-14T06:54:21.874Z,-2.32
2022-12-14T06:56:49.212Z,-2.31
2022-12-14T06:59:17.284Z,-2.28
2022-12-14T07:01:46.060Z,-2.09
2022-12-14T07:04:21.009Z,-2.11
2022-12-14T07:06:48.387Z,-2.13
2022-12-14T07:09:15.721Z,-2.63
2022-12-14T07:11:43.733Z,-2.79
2022-12-14T07:14:16.032Z,-2.44
2022-12-14T07:16:47.764Z,-2.17
2022-12-14T07:19:16.435Z,-2.41
2022-12-14T07:21:44.084Z,-2.36
2022-12-14T07:24:11.447Z,-2.45
2022-12-14T07:26:38.858Z,-2.12
2022-12-14T07:29:06.684Z,-2.34
2022-12-14T07:31:34.185Z,-2.06
2022-12-14T07:34:01.591Z,-2.35
2022-12-14T07:36:29.998Z,-2.53
2022-12-14T07:38:57.638Z,-2.44
2022-12-14T07:41:28.034Z,-2.64
2022-12-14T07:43:56.215Z,-2.35
2022-12-14T07:46:25.704Z,-2.17
2022-12-14T07:48:55.392Z,-2.47
2022-12-14T07:51:28.930Z,-2.45
2022-12-14T07:53:57.010Z,-2.09
2022-12-14T07:56:28.599Z,-2.06
2022-12-14T07:58:57.615Z,-1.68
2022-12-14T08:01:34.214Z,-1.84
2022-12-14T08:04:13.960Z,-1.46
2022-12-14T08:06:41.622Z,-1.81
2022-12-14T08:09:10.897Z,-1.41
2022-12-14T08:11:39.033Z,-1.73
2022-12-14T08:14:09.052Z,-1.41
2022-12-14T08:16:36.775Z,-1.73
2022-12-14T08:19:04.234Z,-1.26
2022-12-14T08:21:31.676Z,-1.55
2022-12-14T08:23:59.475Z,-1.58
2022-12-14T08:26:34.963Z,-1.35
2022-12-14T08:29:04.189Z,-1.71
2022-12-14T08:31:32.287Z,-1.60
2022-12-14T08:34:00.479Z,-1.52
2022-12-14T08:36:30.430Z,-1.89
2022-12-14T08:38:59.825Z,-1.78
2022-12-14T08:41:28.189Z,-1.53
2022-12-14T08:43:57.639Z,-2.11
2022-12-14T08:46:26.812Z,-2.04
2022-12-14T08:48:55.398Z,-1.95
2022-12-14T08:51:24.243Z,-1.85
2022-12-14T08:53:52.395Z,-1.95
2022-12-14T08:56:22.214Z,-1.73
2022-12-14T08:58:49.838Z,-1.70
2022-12-14T09:01:32.380Z,-1.77
2022-12-14T09:04:06.055Z,-1.87
2022-12-14T09:06:35.897Z,-2.00
2022-12-14T09:09:04.497Z,-1.48
2022-12-14T09:11:31.876Z,-1.87
2022-12-14T09:13:59.418Z,-1.82
2022-12-14T09:16:27.082Z,-1.22
2022-12-14T09:18:54.884Z,-1.69
2022-12-14T09:21:22.440Z,-1.56
2022-12-14T09:23:57.332Z,-1.89
2022-12-14T09:26:27.743Z,-1.48
2022-12-14T09:28:56.963Z,-1.73
2022-12-14T09:31:26.288Z,-1.22
2022-12-14T09:33:54.876Z,-1.26
2022-12-14T09:36:24.646Z,-1.40
2022-12-14T09:38:52.751Z,-1.21
2022-12-14T09:41:33.669Z,-1.48
2022-12-14T09:44:18.791Z,-1.42
2022-12-14T09:46:56.427Z,-1.78
2022-12-14T09:49:28.578Z,-1.56
2022-12-14T09:51:59.184Z,-1.57
2022-12-14T09:54:30.312Z,-1.51
2022-12-14T09:57:01.591Z,-1.28
2022-12-14T09:59:31.865Z,-1.14
2022-12-14T10:02:30.932Z,-1.36
2022-12-14T10:05:25.828Z,-1.39
2022-12-14T10:07:56.418Z,-1.35
2022-12-14T10:10:28.573Z,-0.93
2022-12-14T10:13:21.911Z,-0.79
2022-12-14T10:16:03.783Z,-0.88
2022-12-14T10:18:59.367Z,-0.88
2022-12-14T10:21:38.759Z,-0.76
2022-12-14T10:24:07.217Z,-0.45
2022-12-14T10:26:40.335Z,-0.82
2022-12-14T10:29:18.871Z,-0.97
2022-12-14T10:32:14.105Z,-0.77
2022-12-14T10:34:42.153Z,-0.47
2022-12-14T10:37:27.548Z,-1.17
2022-12-14T10:40:26.219Z,-1.10
2022-12-14T10:43:35.870Z,-0.77
2022-12-14T10:46:14.776Z,-0.38
2022-12-14T10:49:09.837Z,-0.73
2022-12-14T10:51:42.365Z,-1.12
2022-12-14T10:54:24.441Z,-0.87
2022-12-14T10:56:51.935Z,-0.99
2022-12-14T10:59:23.619Z,-1.16
2022-12-14T11:01:59.712Z,-0.97
2022-12-14T11:04:40.380Z,-0.79
2022-12-14T11:07:09.536Z,-0.71
2022-12-14T11:09:38.510Z,-1.00
2022-12-14T11:12:18.435Z,-0.98
2022-12-14T11:14:54.896Z,-0.76
2022-12-14T11:17:43.113Z,-0.91
2022-12-14T11:20:20.654Z,-0.90
2022-12-14T11:22:55.145Z,-1.27
2022-12-14T11:25:25.531Z,-0.60
2022-12-14T11:27:54.429Z,-0.62
2022-12-14T11:30:21.981Z,-0.71
2022-12-14T11:32:49.982Z,-0.64
2022-12-14T11:35:19.207Z,-0.59
2022-12-14T11:37:49.217Z,-0.37
2022-12-14T11:40:26.109Z,-0.37
2022-12-14T11:43:03.430Z,-0.71
2022-12-14T11:45:36.499Z,-0.08
2022-12-14T11:48:16.019Z,-0.55
2022-12-14T11:50:44.750Z,-0.09
2022-12-14T11:53:14.561Z,-0.29
2022-12-14T11:56:03.679Z,-0.06
2022-12-14T11:58:34.377Z,-0.10
2022-12-14T12:01:21.035Z,-0.32
2022-12-14T12:03:50.617Z,-0.20
2022-12-14T12:06:29.460Z,-0.30
2022-12-14T12:09:00.005Z,-0.19
2022-12-14T12:11:30.519Z,-0.08
2022-12-14T12:14:24.645Z,0.03
2022-12-14T12:16:53.258Z,-0.04
2022-12-14T12:19:34.967Z,0.36
2022-12-14T12:22:03.401Z,0.05
2022-12-14T12:24:32.243Z,0.14
2022-12-14T12:27:11.823Z,-0.07
2022-12-14T12:30:01.009Z,0.10
2022-12-14T12:32:43.782Z,0.14
2022-12-14T12:35:25.154Z,-0.06
2022-12-14T12:38:09.798Z,-0.18
2022-12-14T12:41:28.807Z,-0.22
2022-12-14T12:44:01.503Z,0.24
2022-12-14T12:46:37.892Z,0.22
2022-12-14T12:49:15.857Z,-0.34
2022-12-14T12:51:54.287Z,-0.40
2022-12-14T12:54:29.135Z,-0.41
2022-12-14T12:56:58.461Z,-0.43
2022-12-14T12:59:42.985Z,-0.07
2022-12-14T13:02:22.424Z,-0.57
2022-12-14T13:04:52.883Z,-0.05
2022-12-14T13:07:25.791Z,0.19
2022-12-14T13:10:05.188Z,-0.21
2022-12-14T13:12:37.452Z,-0.50
2022-12-14T13:15:16.134Z,-0.22
2022-12-14T13:17:49.401Z,-0.18
2022-12-14T13:20:23.022Z,-0.52
2022-12-14T13:22:50.971Z,-0.29
2022-12-14T13:25:21.045Z,-0.17
2022-12-14T13:28:07.556Z,-0.13
2022-12-14T13:30:55.684Z,-0.37
2022-12-14T13:33:25.957Z,-0.63
2022-12-14T13:36:34.878Z,-0.47
2022-12-14T13:39:11.049Z,-0.57
2022-12-14T13:41:53.318Z,-0.45
2022-12-14T13:44:34.465Z,-0.29
2022-12-14T13:47:06.450Z,-0.31
2022-12-14T13:49:33.878Z,-0.43
2022-12-14T13:52:01.370Z,-0.76
2022-12-14T13:54:31.734Z,-0.50
2022-12-14T13:57:21.861Z,-0.33
2022-12-14T13:59:53.868Z,-0.13
2022-12-14T14:02:30.657Z,-0.04
2022-12-14T14:05:20.247Z,-0.49
2022-12-14T14:08:39.205Z,-0.56
2022-12-14T14:11:36.509Z,-0.58
2022-12-14T14:14:36.183Z,-0.30
2022-12-14T14:17:11.571Z,-0.65
2022-12-14T14:19:41.288Z,-0.60
2022-12-14T14:22:25.217Z,-0.72
2022-12-14T14:24:57.257Z,-0.43
2022-12-14T14:27:33.930Z,-0.39
2022-12-14T14:30:01.659Z,-0.38
2022-12-14T14:32:42.194Z,-0.16
2022-12-14T14:35:34.713Z,-0.01
2022-12-14T14:38:22.479Z,0.05
2022-12-14T14:43:51.562Z,-0.34
2022-12-14T14:46:22.832Z,-0.10
2022-12-14T14:48:53.352Z,-0.12
2022-12-14T14:51:25.213Z,-0.16
2022-12-14T14:55:11.113Z,-0.09
2022-12-14T14:58:09.310Z,-0.34
2022-12-14T15:00:41.873Z,-0.34
2022-12-14T15:03:13.035Z,-0.40
2022-12-14T15:05:43.017Z,-0.36
2022-12-14T15:08:35.807Z,-0.57
2022-12-14T15:11:06.177Z,-0.61
2022-12-14T15:13:47.377Z,-0.40
2022-12-14T15:16:23.832Z,-0.26
2022-12-14T15:18:51.217Z,-0.07
2022-12-14T15:21:19.531Z,-0.54
2022-12-14T15:23:49.995Z,-0.19
2022-12-14T15:26:24.365Z,-0.13
2022-12-14T15:28:54.973Z,0.08
2022-12-14T15:31:32.536Z,-0.45
2022-12-14T15:34:00.905Z,-0.09
2022-12-14T15:36:31.119Z,-0.49
2022-12-14T15:38:59.069Z,-0.40
2022-12-14T15:41:33.023Z,-0.67
2022-12-14T15:44:00.953Z,-0.60
2022-12-14T15:46:30.863Z,-0.54
2022-12-14T15:49:05.370Z,-0.54
2022-12-14T15:51:36.357Z,-0.37
2022-12-14T15:54:05.388Z,-0.61
2022-12-14T15:56:41.542Z,-0.60
2022-12-14T15:59:18.004Z,-0.87
2022-12-14T16:01:53.722Z,-0.62
2022-12-14T16:04:23.603Z,-0.53
2022-12-14T16:07:01.748Z,-0.55
2022-12-14T16:09:58.922Z,-0.47
2022-12-14T16:12:45.441Z,-0.40
2022-12-14T16:15:18.157Z,-0.30
2022-12-14T16:17:45.916Z,-0.31
2022-12-14T16:20:22.346Z,-0.70
2022-12-14T16:23:01.662Z,-0.27
2022-12-14T16:25:31.476Z,-0.72
2022-12-14T16:28:20.172Z,-0.63
2022-12-14T16:31:00.800Z,-0.91
2022-12-14T16:33:29.589Z,-0.67
2022-12-14T16:35:59.882Z,-0.69
2022-12-14T16:38:27.960Z,-1.19
2022-12-14T16:41:00.701Z,-0.67
2022-12-14T16:43:33.613Z,-0.40
2022-12-14T16:46:04.641Z,-0.36
2022-12-14T16:48:35.275Z,-0.57
2022-12-14T16:51:44.868Z,-0.81
2022-12-14T16:54:27.226Z,-0.78
2022-12-14T16:57:04.924Z,-0.73
2022-12-14T16:59:41.493Z,-0.81
2022-12-14T17:02:33.866Z,-0.38
2022-12-14T17:05:05.818Z,-0.72
2022-12-14T17:07:34.421Z,-0.67
2022-12-14T17:10:02.596Z,-0.35
2022-12-14T17:12:30.602Z,-0.16
2022-12-14T17:15:00.030Z,-0.19
2022-12-14T17:17:33.593Z,0.09
2022-12-14T17:20:05.874Z,-0.19
2022-12-14T17:22:38.850Z,0.07
2022-12-14T17:25:06.536Z,-0.34
2022-12-14T17:27:35.812Z,-0.63
2022-12-14T17:30:04.874Z,-0.27
2022-12-14T17:32:35.936Z,-0.57
2022-12-14T17:35:09.019Z,-0.39
2022-12-14T17:37:37.740Z,-0.10
2022-12-14T17:40:06.196Z,0.18
2022-12-14T17:42:36.901Z,-0.13
2022-12-14T17:45:05.739Z,-0.54
2022-12-14T17:47:35.658Z,-0.24
2022-12-14T17:50:03.838Z,-0.07
2022-12-14T17:52:32.867Z,-0.12
2022-12-14T17:55:01.053Z,0.08
2022-12-14T17:57:30.182Z,-0.54
2022-12-14T18:00:25.340Z,-0.06
2022-12-14T18:02:55.667Z,0.21
2022-12-14T18:05:23.924Z,0.23
2022-12-14T18:07:52.440Z,-0.05
2022-12-14T18:10:20.792Z,0.13
2022-12-14T18:12:49.644Z,-0.35
2022-12-14T18:15:27.784Z,-0.04
2022-12-14T18:17:58.179Z,0.08
2022-12-14T18:20:28.389Z,-0.51
2022-12-14T18:22:59.748Z,-0.32
2022-12-14T18:25:43.230Z,-0.47
2022-12-14T18:28:17.752Z,-0.23
2022-12-14T18:30:50.928Z,0.11
2022-12-14T18:33:22.732Z,-0.21
2022-12-14T18:35:53.112Z,0.05
2022-12-14T18:38:21.821Z,0.09
2022-12-14T18:40:52.097Z,-0.04
2022-12-14T18:43:24.469Z,-0.36
2022-12-14T18:45:53.523Z,-0.32
2022-12-14T18:48:23.029Z,-0.13
2022-12-14T18:50:54.808Z,-0.30
2022-12-14T18:53:25.134Z,-0.22
2022-12-14T18:55:54.339Z,-0.31
2022-12-14T18:58:28.011Z,0.01
2022-12-14T19:00:59.224Z,-0.28
2022-12-14T19:03:30.331Z,-0.32
2022-12-14T19:06:42.160Z,-0.08
2022-12-14T19:08:58.526Z,-0.10
2022-12-14T19:11:43.365Z,-0.10
2022-12-14T19:14:14.283Z,0.07
2022-12-14T19:16:43.620Z,0.27
2022-12-14T19:19:13.945Z,-0.11
2022-12-14T19:21:43.485Z,0.18
2022-12-14T19:24:15.519Z,-0.05
2022-12-14T19:26:49.409Z,0.18
2022-12-14T19:29:20.233Z,0.07
2022-12-14T19:31:54.261Z,0.54
2022-12-14T19:34:24.032Z,0.37
2022-12-14T19:36:53.160Z,0.25
2022-12-14T19:39:22.287Z,0.55
2022-12-14T19:41:56.679Z,0.49
2022-12-14T19:44:29.114Z,0.30
2022-12-14T19:46:58.349Z,0.12
2022-12-14T19:49:29.320Z,-0.10
2022-12-14T19:51:58.197Z,0.24
2022-12-14T19:54:28.414Z,0.39
2022-12-14T19:56:57.159Z,0.32
2022-12-14T19:59:25.821Z,0.40
2022-12-14T20:01:55.190Z,0.48
2022-12-14T20:04:27.113Z,0.17
2022-12-14T20:06:55.805Z,0.06
2022-12-14T20:09:26.390Z,0.39
2022-12-14T20:11:56.649Z,0.36
2022-12-14T20:14:28.237Z,0.05
2022-12-14T20:16:59.118Z,-0.17
2022-12-14T20:19:28.791Z,0.05
2022-12-14T20:21:57.218Z,-0.18
2022-12-14T20:24:27.933Z,-0.07
2022-12-14T20:27:01.104Z,-0.14
2022-12-14T20:29:30.391Z,0.13
2022-12-14T20:32:01.359Z,-0.04
2022-12-14T20:34:31.532Z,0.28
2022-12-14T20:37:01.123Z,0.13
2022-12-14T20:39:31.331Z,-0.16
2022-12-14T20:42:03.738Z,-0.17
2022-12-14T20:44:32.668Z,0.52
2022-12-14T20:47:03.721Z,0.51
2022-12-14T20:49:33.980Z,0.22
2022-12-14T20:52:05.100Z,0.35
2022-12-14T20:54:36.677Z,0.51
2022-12-14T20:57:06.767Z,0.37
2022-12-14T20:59:35.430Z,0.25
2022-12-14T21:02:03.570Z,0.42
2022-12-14T21:04:33.205Z,0.47
2022-12-14T21:07:02.295Z,0.27
2022-12-14T21:09:30.306Z,0.78
2022-12-14T21:12:17.711Z,0.43
2022-12-14T21:14:50.464Z,0.67
2022-12-14T21:17:20.783Z,0.53
2022-12-14T21:19:48.670Z,0.41
2022-12-14T21:22:19.339Z,0.32
2022-12-14T21:25:05.280Z,0.52
2022-12-14T21:27:38.157Z,0.42
2022-12-14T21:30:10.158Z,0.87
2022-12-14T21:32:38.625Z,0.40
2022-12-14T21:35:07.536Z,0.32
2022-12-14T21:37:37.319Z,0.32
2022-12-14T21:40:05.335Z,0.18
2022-12-14T21:42:33.173Z,0.55
2022-12-14T21:45:00.601Z,0.49
2022-12-14T21:47:29.706Z,0.37
2022-12-14T21:49:57.736Z,0.80
2022-12-14T21:52:26.930Z,0.77
2022-12-14T21:54:54.604Z,0.89
2022-12-14T21:57:49.342Z,1.05
2022-12-14T22:00:18.438Z,1.01
2022-12-14T22:02:46.199Z,0.57
2022-12-14T22:05:13.825Z,0.60
2022-12-14T22:07:41.225Z,0.65
2022-12-14T22:10:08.862Z,0.26
2022-12-14T22:12:36.211Z,0.66
2022-12-14T22:15:03.794Z,0.50
2022-12-14T22:17:31.471Z,0.58
2022-12-14T22:19:59.455Z,0.74
2022-12-14T22:22:26.978Z,0.65
2022-12-14T22:24:54.682Z,0.89
2022-12-14T22:27:23.032Z,1.23
2022-12-14T22:29:50.405Z,0.80
2022-12-14T22:32:18.155Z,0.89
2022-12-14T22:34:45.623Z,0.72
2022-12-14T22:37:18.994Z,0.73
2022-12-14T22:39:47.766Z,1.00
2022-12-14T22:42:16.327Z,0.89
2022-12-14T22:44:43.695Z,0.93
2022-12-14T22:47:11.375Z,0.74
2022-12-14T22:49:38.717Z,1.01
2022-12-14T22:52:06.060Z,0.57
2022-12-14T22:54:33.751Z,0.52
2022-12-14T22:57:06.184Z,0.65
2022-12-14T22:59:36.968Z,0.34
2022-12-14T23:02:05.104Z,0.08
2022-12-14T23:04:32.606Z,0.36
2022-12-14T23:07:00.241Z,0.53
2022-12-14T23:09:46.270Z,0.43
2022-12-14T23:12:32.585Z,-0.06
2022-12-14T23:15:19.137Z,-0.10
2022-12-14T23:18:05.398Z,0.44
2022-12-14T23:20:51.473Z,0.11
2022-12-14T23:23:37.897Z,0.66
2022-12-14T23:26:23.791Z,0.48
2022-12-14T23:29:10.110Z,0.48
2022-12-14T23:31:56.183Z,0.67
2022-12-14T23:34:42.127Z,0.37
2022-12-14T23:37:28.173Z,1.15
2022-12-14T23:40:14.145Z,0.55
2022-12-14T23:43:00.184Z,0.82
2022-12-14T23:45:46.740Z,0.36
2022-12-14T23:48:32.484Z,1.03
2022-12-14T23:51:19.294Z,1.15
2022-12-14T23:54:05.408Z,1.38
2022-12-14T23:56:53.106Z,1.47
2022-12-14T23:59:39.127Z,1.69
